sensor_id;sensor_type;location;lat;lon;timestamp;P1;durP1;ratioP1;P2;durP2;ratioP2
80421;SDS011;69763;50.182;9.144;2023-08-20T00:02:51;14.10;;;8.75;;
80421;SDS011;69763;50.182;9.144;2023-08-20T00:05:29;16.58;;;8.70;;
80421;SDS011;69763;50.182;9.144;2023-08-20T00:07:55;14.05;;;9.18;;
80421;SDS011;69763;50.182;9.144;2023-08-20T00:10:21;14.73;;;9.65;;
80421;SDS011;69763;50.182;9.144;2023-08-20T00:12:46;16.52;;;8.95;;
80421;SDS011;69763;50.182;9.144;2023-08-20T00:15:12;14.18;;;9.07;;
80421;SDS011;69763;50.182;9.144;2023-08-20T00:17:38;14.18;;;9.00;;
80421;SDS011;69763;50.182;9.144;2023-08-20T00:20:05;13.38;;;9.27;;
80421;SDS011;69763;50.182;9.144;2023-08-20T00:22:33;12.18;;;8.95;;
80421;SDS011;69763;50.182;9.144;2023-08-20T00:24:59;14.20;;;8.98;;
80421;SDS011;69763;50.182;9.144;2023-08-20T00:27:24;11.35;;;8.82;;
80421;SDS011;69763;50.182;9.144;2023-08-20T00:29:50;14.13;;;9.75;;
80421;SDS011;69763;50.182;9.144;2023-08-20T00:32:16;17.00;;;10.00;;
80421;SDS011;69763;50.182;9.144;2023-08-20T00:34:41;15.40;;;8.77;;
80421;SDS011;69763;50.182;9.144;2023-08-20T00:37:07;16.05;;;10.60;;
80421;SDS011;69763;50.182;9.144;2023-08-20T00:39:34;14.13;;;10.18;;
80421;SDS011;69763;50.182;9.144;2023-08-20T00:41:59;22.67;;;10.13;;
80421;SDS011;69763;50.182;9.144;2023-08-20T00:44:25;12.88;;;9.27;;
80421;SDS011;69763;50.182;9.144;2023-08-20T00:46:51;16.38;;;10.90;;
80421;SDS011;69763;50.182;9.144;2023-08-20T00:49:16;18.08;;;9.90;;
80421;SDS011;69763;50.182;9.144;2023-08-20T00:51:42;15.93;;;10.77;;
80421;SDS011;69763;50.182;9.144;2023-08-20T00:54:08;16.73;;;10.48;;
80421;SDS011;69763;50.182;9.144;2023-08-20T00:56:36;15.68;;;10.68;;
80421;SDS011;69763;50.182;9.144;2023-08-20T00:59:02;17.10;;;9.90;;
80421;SDS011;69763;50.182;9.144;2023-08-20T01:01:29;14.98;;;9.60;;
80421;SDS011;69763;50.182;9.144;2023-08-20T01:03:54;13.68;;;10.32;;
80421;SDS011;69763;50.182;9.144;2023-08-20T01:06:20;18.20;;;9.50;;
80421;SDS011;69763;50.182;9.144;2023-08-20T01:08:53;14.48;;;9.27;;
80421;SDS011;69763;50.182;9.144;2023-08-20T01:11:26;15.30;;;9.05;;
80421;SDS011;69763;50.182;9.144;2023-08-20T01:14:00;15.82;;;10.23;;
80421;SDS011;69763;50.182;9.144;2023-08-20T01:16:25;13.00;;;9.60;;
80421;SDS011;69763;50.182;9.144;2023-08-20T01:18:51;13.50;;;9.27;;
80421;SDS011;69763;50.182;9.144;2023-08-20T01:21:20;12.40;;;9.98;;
80421;SDS011;69763;50.182;9.144;2023-08-20T01:24:01;16.42;;;9.82;;
80421;SDS011;69763;50.182;9.144;2023-08-20T01:26:41;16.67;;;9.65;;
80421;SDS011;69763;50.182;9.144;2023-08-20T01:29:26;17.08;;;10.18;;
80421;SDS011;69763;50.182;9.144;2023-08-20T01:31:52;13.85;;;9.93;;
80421;SDS011;69763;50.182;9.144;2023-08-20T01:34:19;14.85;;;9.65;;
80421;SDS011;69763;50.182;9.144;2023-08-20T01:36:45;19.05;;;10.05;;
80421;SDS011;69763;50.182;9.144;2023-08-20T01:39:11;14.45;;;9.35;;
80421;SDS011;69763;50.182;9.144;2023-08-20T01:41:36;14.02;;;9.00;;
80421;SDS011;69763;50.182;9.144;2023-08-20T01:44:02;12.00;;;8.63;;
80421;SDS011;69763;50.182;9.144;2023-08-20T01:46:29;13.80;;;9.85;;
80421;SDS011;69763;50.182;9.144;2023-08-20T01:48:55;18.00;;;9.02;;
80421;SDS011;69763;50.182;9.144;2023-08-20T01:51:20;13.52;;;8.55;;
80421;SDS011;69763;50.182;9.144;2023-08-20T01:53:46;11.43;;;9.30;;
80421;SDS011;69763;50.182;9.144;2023-08-20T01:56:12;14.60;;;9.18;;
80421;SDS011;69763;50.182;9.144;2023-08-20T01:58:37;14.15;;;7.70;;
80421;SDS011;69763;50.182;9.144;2023-08-20T02:01:03;11.65;;;8.05;;
80421;SDS011;69763;50.182;9.144;2023-08-20T02:03:29;13.55;;;7.80;;
80421;SDS011;69763;50.182;9.144;2023-08-20T02:05:55;11.90;;;8.38;;
80421;SDS011;69763;50.182;9.144;2023-08-20T02:08:20;10.15;;;7.30;;
80421;SDS011;69763;50.182;9.144;2023-08-20T02:10:46;10.30;;;7.57;;
80421;SDS011;69763;50.182;9.144;2023-08-20T02:13:11;11.63;;;7.63;;
80421;SDS011;69763;50.182;9.144;2023-08-20T02:15:37;12.55;;;8.23;;
80421;SDS011;69763;50.182;9.144;2023-08-20T02:18:02;10.75;;;7.75;;
80421;SDS011;69763;50.182;9.144;2023-08-20T02:20:29;12.23;;;7.72;;
80421;SDS011;69763;50.182;9.144;2023-08-20T02:22:55;8.82;;;6.95;;
80421;SDS011;69763;50.182;9.144;2023-08-20T02:25:22;14.30;;;8.07;;
80421;SDS011;69763;50.182;9.144;2023-08-20T02:27:48;14.10;;;7.28;;
80421;SDS011;69763;50.182;9.144;2023-08-20T02:30:14;14.63;;;7.18;;
80421;SDS011;69763;50.182;9.144;2023-08-20T02:32:40;14.55;;;7.32;;
80421;SDS011;69763;50.182;9.144;2023-08-20T02:35:05;10.20;;;6.75;;
80421;SDS011;69763;50.182;9.144;2023-08-20T02:37:33;14.63;;;7.32;;
80421;SDS011;69763;50.182;9.144;2023-08-20T02:39:58;11.02;;;8.05;;
80421;SDS011;69763;50.182;9.144;2023-08-20T02:42:24;14.95;;;7.43;;
80421;SDS011;69763;50.182;9.144;2023-08-20T02:44:49;12.27;;;7.25;;
80421;SDS011;69763;50.182;9.144;2023-08-20T02:47:15;11.80;;;7.63;;
80421;SDS011;69763;50.182;9.144;2023-08-20T02:49:40;13.95;;;7.35;;
80421;SDS011;69763;50.182;9.144;2023-08-20T02:52:06;11.25;;;7.65;;
80421;SDS011;69763;50.182;9.144;2023-08-20T02:54:33;11.43;;;7.35;;
80421;SDS011;69763;50.182;9.144;2023-08-20T02:56:59;13.63;;;7.25;;
80421;SDS011;69763;50.182;9.144;2023-08-20T02:59:24;12.43;;;7.80;;
80421;SDS011;69763;50.182;9.144;2023-08-20T03:01:50;11.32;;;8.05;;
80421;SDS011;69763;50.182;9.144;2023-08-20T03:04:15;9.60;;;7.43;;
80421;SDS011;69763;50.182;9.144;2023-08-20T03:06:41;15.52;;;8.30;;
80421;SDS011;69763;50.182;9.144;2023-08-20T03:09:07;12.25;;;6.95;;
80421;SDS011;69763;50.182;9.144;2023-08-20T03:11:34;19.65;;;8.18;;
80421;SDS011;69763;50.182;9.144;2023-08-20T03:13:59;13.68;;;8.48;;
80421;SDS011;69763;50.182;9.144;2023-08-20T03:16:25;15.82;;;7.20;;
80421;SDS011;69763;50.182;9.144;2023-08-20T03:18:50;15.75;;;7.95;;
80421;SDS011;69763;50.182;9.144;2023-08-20T03:21:16;11.65;;;7.97;;
80421;SDS011;69763;50.182;9.144;2023-08-20T03:23:41;10.65;;;7.70;;
80421;SDS011;69763;50.182;9.144;2023-08-20T03:26:07;11.63;;;7.72;;
80421;SDS011;69763;50.182;9.144;2023-08-20T03:28:33;12.00;;;8.63;;
80421;SDS011;69763;50.182;9.144;2023-08-20T03:30:59;10.50;;;8.02;;
80421;SDS011;69763;50.182;9.144;2023-08-20T03:33:25;12.38;;;7.95;;
80421;SDS011;69763;50.182;9.144;2023-08-20T03:35:50;15.35;;;7.80;;
80421;SDS011;69763;50.182;9.144;2023-08-20T03:38:15;14.27;;;8.55;;
80421;SDS011;69763;50.182;9.144;2023-08-20T03:40:41;12.55;;;8.52;;
80421;SDS011;69763;50.182;9.144;2023-08-20T03:43:07;13.45;;;8.43;;
80421;SDS011;69763;50.182;9.144;2023-08-20T03:45:33;16.48;;;9.32;;
80421;SDS011;69763;50.182;9.144;2023-08-20T03:47:59;16.13;;;9.20;;
80421;SDS011;69763;50.182;9.144;2023-08-20T03:50:24;12.13;;;8.43;;
80421;SDS011;69763;50.182;9.144;2023-08-20T03:52:50;12.82;;;8.48;;
80421;SDS011;69763;50.182;9.144;2023-08-20T03:55:15;13.82;;;8.50;;
80421;SDS011;69763;50.182;9.144;2023-08-20T03:57:41;12.23;;;8.43;;
80421;SDS011;69763;50.182;9.144;2023-08-20T04:00:06;17.98;;;8.68;;
80421;SDS011;69763;50.182;9.144;2023-08-20T04:02:34;12.70;;;8.15;;
80421;SDS011;69763;50.182;9.144;2023-08-20T04:04:59;16.67;;;9.07;;
80421;SDS011;69763;50.182;9.144;2023-08-20T04:07:25;14.57;;;10.13;;
80421;SDS011;69763;50.182;9.144;2023-08-20T04:09:50;17.67;;;10.60;;
80421;SDS011;69763;50.182;9.144;2023-08-20T04:12:16;17.80;;;9.27;;
80421;SDS011;69763;50.182;9.144;2023-08-20T04:14:41;17.27;;;9.93;;
80421;SDS011;69763;50.182;9.144;2023-08-20T04:17:07;12.35;;;9.27;;
80421;SDS011;69763;50.182;9.144;2023-08-20T04:19:34;15.90;;;9.10;;
80421;SDS011;69763;50.182;9.144;2023-08-20T04:21:59;16.77;;;9.68;;
80421;SDS011;69763;50.182;9.144;2023-08-20T04:24:24;13.38;;;9.38;;
80421;SDS011;69763;50.182;9.144;2023-08-20T04:26:50;18.05;;;9.65;;
80421;SDS011;69763;50.182;9.144;2023-08-20T04:29:15;13.88;;;10.13;;
80421;SDS011;69763;50.182;9.144;2023-08-20T04:31:41;12.73;;;9.52;;
80421;SDS011;69763;50.182;9.144;2023-08-20T04:34:07;13.85;;;9.60;;
80421;SDS011;69763;50.182;9.144;2023-08-20T04:38:59;13.98;;;10.05;;
80421;SDS011;69763;50.182;9.144;2023-08-20T04:41:25;16.90;;;9.80;;
80421;SDS011;69763;50.182;9.144;2023-08-20T04:43:50;13.90;;;9.48;;
80421;SDS011;69763;50.182;9.144;2023-08-20T04:46:16;16.95;;;9.13;;
80421;SDS011;69763;50.182;9.144;2023-08-20T04:48:41;17.67;;;9.73;;
80421;SDS011;69763;50.182;9.144;2023-08-20T04:51:07;14.68;;;8.52;;
80421;SDS011;69763;50.182;9.144;2023-08-20T04:53:34;15.02;;;9.35;;
80421;SDS011;69763;50.182;9.144;2023-08-20T04:55:59;20.55;;;9.52;;
80421;SDS011;69763;50.182;9.144;2023-08-20T04:58:24;13.85;;;10.00;;
80421;SDS011;69763;50.182;9.144;2023-08-20T05:00:50;16.42;;;9.88;;
80421;SDS011;69763;50.182;9.144;2023-08-20T05:03:16;17.67;;;9.07;;
80421;SDS011;69763;50.182;9.144;2023-08-20T05:05:41;18.77;;;9.35;;
80421;SDS011;69763;50.182;9.144;2023-08-20T05:08:06;14.10;;;9.77;;
80421;SDS011;69763;50.182;9.144;2023-08-20T05:10:34;14.23;;;10.02;;
80421;SDS011;69763;50.182;9.144;2023-08-20T05:13:00;16.38;;;9.27;;
80421;SDS011;69763;50.182;9.144;2023-08-20T05:15:26;15.43;;;8.95;;
80421;SDS011;69763;50.182;9.144;2023-08-20T05:17:51;21.35;;;8.40;;
80421;SDS011;69763;50.182;9.144;2023-08-20T05:20:16;17.05;;;9.32;;
80421;SDS011;69763;50.182;9.144;2023-08-20T05:22:42;13.75;;;8.38;;
80421;SDS011;69763;50.182;9.144;2023-08-20T05:25:07;20.45;;;9.98;;
80421;SDS011;69763;50.182;9.144;2023-08-20T05:27:34;13.27;;;8.68;;
80421;SDS011;69763;50.182;9.144;2023-08-20T05:30:00;13.27;;;8.05;;
80421;SDS011;69763;50.182;9.144;2023-08-20T05:32:25;14.32;;;8.70;;
80421;SDS011;69763;50.182;9.144;2023-08-20T05:34:51;11.13;;;7.32;;
80421;SDS011;69763;50.182;9.144;2023-08-20T05:37:16;12.85;;;8.63;;
80421;SDS011;69763;50.182;9.144;2023-08-20T05:39:42;8.77;;;6.88;;
80421;SDS011;69763;50.182;9.144;2023-08-20T05:42:09;11.27;;;7.97;;
80421;SDS011;69763;50.182;9.144;2023-08-20T05:44:36;14.18;;;7.78;;
80421;SDS011;69763;50.182;9.144;2023-08-20T05:47:01;11.63;;;7.15;;
80421;SDS011;69763;50.182;9.144;2023-08-20T05:49:27;10.02;;;7.22;;
80421;SDS011;69763;50.182;9.144;2023-08-20T05:51:53;10.57;;;6.63;;
80421;SDS011;69763;50.182;9.144;2023-08-20T05:54:18;13.07;;;7.30;;
80421;SDS011;69763;50.182;9.144;2023-08-20T05:56:44;10.27;;;6.88;;
80421;SDS011;69763;50.182;9.144;2023-08-20T05:59:10;9.70;;;6.97;;
80421;SDS011;69763;50.182;9.144;2023-08-20T06:01:37;16.40;;;7.18;;
80421;SDS011;69763;50.182;9.144;2023-08-20T06:04:03;9.48;;;6.20;;
80421;SDS011;69763;50.182;9.144;2023-08-20T06:06:29;13.82;;;6.85;;
80421;SDS011;69763;50.182;9.144;2023-08-20T06:11:20;9.60;;;6.18;;
80421;SDS011;69763;50.182;9.144;2023-08-20T06:13:46;10.73;;;5.97;;
80421;SDS011;69763;50.182;9.144;2023-08-20T06:18:38;9.87;;;5.80;;
80421;SDS011;69763;50.182;9.144;2023-08-20T06:21:04;7.63;;;5.80;;
80421;SDS011;69763;50.182;9.144;2023-08-20T06:25:55;10.20;;;6.17;;
80421;SDS011;69763;50.182;9.144;2023-08-20T06:28:20;12.95;;;6.50;;
80421;SDS011;69763;50.182;9.144;2023-08-20T06:30:46;8.40;;;6.38;;
80421;SDS011;69763;50.182;9.144;2023-08-20T06:33:11;10.15;;;7.18;;
80421;SDS011;69763;50.182;9.144;2023-08-20T06:35:38;8.63;;;6.38;;
80421;SDS011;69763;50.182;9.144;2023-08-20T06:38:04;10.60;;;7.57;;
80421;SDS011;69763;50.182;9.144;2023-08-20T06:40:30;12.70;;;6.65;;
80421;SDS011;69763;50.182;9.144;2023-08-20T06:42:55;10.20;;;7.55;;
80421;SDS011;69763;50.182;9.144;2023-08-20T06:45:21;10.57;;;6.40;;
80421;SDS011;69763;50.182;9.144;2023-08-20T06:47:46;8.25;;;6.82;;
80421;SDS011;69763;50.182;9.144;2023-08-20T06:50:12;10.93;;;7.07;;
80421;SDS011;69763;50.182;9.144;2023-08-20T06:55:04;12.85;;;6.70;;
80421;SDS011;69763;50.182;9.144;2023-08-20T06:57:30;10.10;;;7.05;;
80421;SDS011;69763;50.182;9.144;2023-08-20T06:59:56;10.73;;;6.68;;
80421;SDS011;69763;50.182;9.144;2023-08-20T07:02:21;11.85;;;6.68;;
80421;SDS011;69763;50.182;9.144;2023-08-20T07:07:12;9.77;;;7.03;;
80421;SDS011;69763;50.182;9.144;2023-08-20T07:09:39;11.05;;;7.40;;
80421;SDS011;69763;50.182;9.144;2023-08-20T07:12:05;9.70;;;6.43;;
80421;SDS011;69763;50.182;9.144;2023-08-20T07:16:56;13.43;;;7.90;;
80421;SDS011;69763;50.182;9.144;2023-08-20T07:21:46;11.25;;;8.32;;
80421;SDS011;69763;50.182;9.144;2023-08-20T07:24:12;9.30;;;6.88;;
80421;SDS011;69763;50.182;9.144;2023-08-20T07:26:39;8.18;;;6.88;;
80421;SDS011;69763;50.182;9.144;2023-08-20T07:29:04;10.77;;;7.10;;
80421;SDS011;69763;50.182;9.144;2023-08-20T07:33:55;10.23;;;6.45;;
80421;SDS011;69763;50.182;9.144;2023-08-20T07:36:23;8.88;;;6.32;;
80421;SDS011;69763;50.182;9.144;2023-08-20T07:38:49;10.20;;;6.53;;
80421;SDS011;69763;50.182;9.144;2023-08-20T07:41:15;11.60;;;7.10;;
80421;SDS011;69763;50.182;9.144;2023-08-20T07:43:42;8.98;;;6.95;;
80421;SDS011;69763;50.182;9.144;2023-08-20T07:46:08;11.60;;;7.00;;
80421;SDS011;69763;50.182;9.144;2023-08-20T07:48:34;10.52;;;6.50;;
80421;SDS011;69763;50.182;9.144;2023-08-20T07:50:59;13.00;;;6.80;;
80421;SDS011;69763;50.182;9.144;2023-08-20T07:53:25;11.02;;;7.10;;
80421;SDS011;69763;50.182;9.144;2023-08-20T07:55:50;8.90;;;8.00;;
80421;SDS011;69763;50.182;9.144;2023-08-20T07:58:16;10.68;;;6.68;;
80421;SDS011;69763;50.182;9.144;2023-08-20T08:00:42;11.05;;;7.53;;
80421;SDS011;69763;50.182;9.144;2023-08-20T08:03:08;10.95;;;6.95;;
80421;SDS011;69763;50.182;9.144;2023-08-20T08:05:33;8.60;;;6.45;;
80421;SDS011;69763;50.182;9.144;2023-08-20T08:07:59;12.60;;;6.43;;
80421;SDS011;69763;50.182;9.144;2023-08-20T08:10:24;11.18;;;7.47;;
80421;SDS011;69763;50.182;9.144;2023-08-20T08:12:50;8.27;;;6.85;;
80421;SDS011;69763;50.182;9.144;2023-08-20T08:15:15;9.50;;;6.82;;
80421;SDS011;69763;50.182;9.144;2023-08-20T08:17:43;9.40;;;7.07;;
80421;SDS011;69763;50.182;9.144;2023-08-20T08:20:09;8.20;;;6.78;;
80421;SDS011;69763;50.182;9.144;2023-08-20T08:22:35;9.77;;;6.85;;
80421;SDS011;69763;50.182;9.144;2023-08-20T08:25:00;8.98;;;7.20;;
80421;SDS011;69763;50.182;9.144;2023-08-20T08:27:26;10.77;;;6.53;;
80421;SDS011;69763;50.182;9.144;2023-08-20T08:29:51;10.80;;;7.68;;
80421;SDS011;69763;50.182;9.144;2023-08-20T08:32:17;8.75;;;6.97;;
80421;SDS011;69763;50.182;9.144;2023-08-20T08:34:44;10.20;;;6.05;;
80421;SDS011;69763;50.182;9.144;2023-08-20T08:37:10;11.07;;;6.75;;
80421;SDS011;69763;50.182;9.144;2023-08-20T08:39:36;9.18;;;6.53;;
80421;SDS011;69763;50.182;9.144;2023-08-20T08:42:02;7.53;;;6.53;;
80421;SDS011;69763;50.182;9.144;2023-08-20T08:44:31;11.13;;;7.60;;
80421;SDS011;69763;50.182;9.144;2023-08-20T08:46:57;10.75;;;7.18;;
80421;SDS011;69763;50.182;9.144;2023-08-20T08:49:23;8.88;;;7.35;;
80421;SDS011;69763;50.182;9.144;2023-08-20T08:51:50;14.20;;;7.18;;
80421;SDS011;69763;50.182;9.144;2023-08-20T08:54:16;9.00;;;6.40;;
80421;SDS011;69763;50.182;9.144;2023-08-20T08:56:42;8.07;;;6.13;;
80421;SDS011;69763;50.182;9.144;2023-08-20T08:59:07;8.00;;;6.55;;
80421;SDS011;69763;50.182;9.144;2023-08-20T09:01:37;12.38;;;6.63;;
80421;SDS011;69763;50.182;9.144;2023-08-20T09:04:03;12.93;;;7.38;;
80421;SDS011;69763;50.182;9.144;2023-08-20T09:06:29;10.93;;;5.75;;
80421;SDS011;69763;50.182;9.144;2023-08-20T09:09:11;10.18;;;6.47;;
80421;SDS011;69763;50.182;9.144;2023-08-20T09:11:36;7.78;;;6.10;;
80421;SDS011;69763;50.182;9.144;2023-08-20T09:14:02;7.85;;;6.13;;
80421;SDS011;69763;50.182;9.144;2023-08-20T09:16:29;9.00;;;6.05;;
80421;SDS011;69763;50.182;9.144;2023-08-20T09:18:55;10.30;;;6.43;;
80421;SDS011;69763;50.182;9.144;2023-08-20T09:21:26;9.73;;;6.93;;
80421;SDS011;69763;50.182;9.144;2023-08-20T09:23:52;7.97;;;6.28;;
80421;SDS011;69763;50.182;9.144;2023-08-20T09:26:18;8.75;;;6.53;;
80421;SDS011;69763;50.182;9.144;2023-08-20T09:28:45;9.30;;;5.88;;
80421;SDS011;69763;50.182;9.144;2023-08-20T09:31:11;8.85;;;5.88;;
80421;SDS011;69763;50.182;9.144;2023-08-20T09:33:38;10.88;;;6.45;;
80421;SDS011;69763;50.182;9.144;2023-08-20T09:36:13;6.68;;;5.95;;
80421;SDS011;69763;50.182;9.144;2023-08-20T09:38:39;10.93;;;6.68;;
80421;SDS011;69763;50.182;9.144;2023-08-20T09:41:04;8.05;;;5.93;;
80421;SDS011;69763;50.182;9.144;2023-08-20T09:43:33;7.50;;;6.10;;
80421;SDS011;69763;50.182;9.144;2023-08-20T09:46:03;9.90;;;6.22;;
80421;SDS011;69763;50.182;9.144;2023-08-20T09:48:32;14.45;;;6.78;;
80421;SDS011;69763;50.182;9.144;2023-08-20T09:51:00;8.82;;;6.32;;
80421;SDS011;69763;50.182;9.144;2023-08-20T09:53:30;7.15;;;6.28;;
80421;SDS011;69763;50.182;9.144;2023-08-20T09:56:01;6.72;;;5.55;;
80421;SDS011;69763;50.182;9.144;2023-08-20T09:58:34;10.15;;;6.80;;
80421;SDS011;69763;50.182;9.144;2023-08-20T10:01:00;11.32;;;7.82;;
80421;SDS011;69763;50.182;9.144;2023-08-20T10:03:26;13.98;;;8.00;;
80421;SDS011;69763;50.182;9.144;2023-08-20T10:05:51;9.35;;;7.03;;
80421;SDS011;69763;50.182;9.144;2023-08-20T10:08:18;12.55;;;7.47;;
80421;SDS011;69763;50.182;9.144;2023-08-20T10:10:45;12.65;;;7.22;;
80421;SDS011;69763;50.182;9.144;2023-08-20T10:13:10;12.70;;;7.22;;
80421;SDS011;69763;50.182;9.144;2023-08-20T10:15:39;13.50;;;7.35;;
80421;SDS011;69763;50.182;9.144;2023-08-20T10:18:07;11.23;;;7.45;;
80421;SDS011;69763;50.182;9.144;2023-08-20T10:20:32;12.52;;;6.60;;
80421;SDS011;69763;50.182;9.144;2023-08-20T10:23:00;9.82;;;6.70;;
80421;SDS011;69763;50.182;9.144;2023-08-20T10:25:27;10.52;;;6.90;;
80421;SDS011;69763;50.182;9.144;2023-08-20T10:27:54;12.07;;;7.65;;
80421;SDS011;69763;50.182;9.144;2023-08-20T10:30:35;14.18;;;7.25;;
80421;SDS011;69763;50.182;9.144;2023-08-20T10:33:10;13.10;;;7.53;;
80421;SDS011;69763;50.182;9.144;2023-08-20T10:35:47;9.50;;;7.40;;
80421;SDS011;69763;50.182;9.144;2023-08-20T10:38:13;7.70;;;6.38;;
80421;SDS011;69763;50.182;9.144;2023-08-20T10:40:49;8.93;;;6.65;;
80421;SDS011;69763;50.182;9.144;2023-08-20T10:43:26;10.35;;;7.30;;
80421;SDS011;69763;50.182;9.144;2023-08-20T10:46:01;10.38;;;7.10;;
80421;SDS011;69763;50.182;9.144;2023-08-20T10:48:29;13.60;;;6.57;;
80421;SDS011;69763;50.182;9.144;2023-08-20T10:50:55;8.02;;;6.65;;
80421;SDS011;69763;50.182;9.144;2023-08-20T10:56:08;8.27;;;7.13;;
80421;SDS011;69763;50.182;9.144;2023-08-20T10:58:35;12.30;;;7.10;;
80421;SDS011;69763;50.182;9.144;2023-08-20T11:01:16;9.10;;;6.68;;
80421;SDS011;69763;50.182;9.144;2023-08-20T11:03:46;11.23;;;6.82;;
80421;SDS011;69763;50.182;9.144;2023-08-20T11:06:14;7.90;;;6.65;;
80421;SDS011;69763;50.182;9.144;2023-08-20T11:11:06;10.25;;;6.47;;
80421;SDS011;69763;50.182;9.144;2023-08-20T11:13:32;10.85;;;6.50;;
80421;SDS011;69763;50.182;9.144;2023-08-20T11:15:58;9.35;;;6.80;;
80421;SDS011;69763;50.182;9.144;2023-08-20T11:18:24;11.07;;;6.35;;
80421;SDS011;69763;50.182;9.144;2023-08-20T11:20:51;8.02;;;6.18;;
80421;SDS011;69763;50.182;9.144;2023-08-20T11:23:17;11.95;;;7.38;;
80421;SDS011;69763;50.182;9.144;2023-08-20T11:25:42;7.55;;;5.75;;
80421;SDS011;69763;50.182;9.144;2023-08-20T11:28:08;9.63;;;5.95;;
80421;SDS011;69763;50.182;9.144;2023-08-20T11:30:33;9.75;;;6.65;;
80421;SDS011;69763;50.182;9.144;2023-08-20T11:32:59;12.52;;;7.18;;
80421;SDS011;69763;50.182;9.144;2023-08-20T11:35:25;11.15;;;6.15;;
80421;SDS011;69763;50.182;9.144;2023-08-20T11:37:52;8.48;;;5.40;;
80421;SDS011;69763;50.182;9.144;2023-08-20T11:40:19;8.93;;;5.72;;
80421;SDS011;69763;50.182;9.144;2023-08-20T11:42:45;12.82;;;5.95;;
80421;SDS011;69763;50.182;9.144;2023-08-20T11:45:10;9.65;;;5.90;;
80421;SDS011;69763;50.182;9.144;2023-08-20T11:47:38;7.38;;;5.97;;
80421;SDS011;69763;50.182;9.144;2023-08-20T11:50:04;9.27;;;6.20;;
80421;SDS011;69763;50.182;9.144;2023-08-20T11:52:30;8.65;;;6.60;;
80421;SDS011;69763;50.182;9.144;2023-08-20T11:54:58;9.20;;;6.18;;
80421;SDS011;69763;50.182;9.144;2023-08-20T11:57:23;7.13;;;5.55;;
80421;SDS011;69763;50.182;9.144;2023-08-20T11:59:49;7.95;;;5.35;;
80421;SDS011;69763;50.182;9.144;2023-08-20T12:02:15;9.05;;;6.43;;
80421;SDS011;69763;50.182;9.144;2023-08-20T12:04:40;10.55;;;6.25;;
80421;SDS011;69763;50.182;9.144;2023-08-20T12:07:08;9.95;;;6.70;;
80421;SDS011;69763;50.182;9.144;2023-08-20T12:09:34;7.85;;;5.88;;
80421;SDS011;69763;50.182;9.144;2023-08-20T12:12:02;6.90;;;5.28;;
80421;SDS011;69763;50.182;9.144;2023-08-20T12:14:30;6.80;;;5.90;;
80421;SDS011;69763;50.182;9.144;2023-08-20T12:16:56;7.78;;;5.45;;
80421;SDS011;69763;50.182;9.144;2023-08-20T12:19:21;6.18;;;5.07;;
80421;SDS011;69763;50.182;9.144;2023-08-20T12:21:47;7.88;;;5.30;;
80421;SDS011;69763;50.182;9.144;2023-08-20T12:24:13;9.45;;;5.70;;
80421;SDS011;69763;50.182;9.144;2023-08-20T12:26:38;7.20;;;5.30;;
80421;SDS011;69763;50.182;9.144;2023-08-20T12:29:06;7.15;;;5.35;;
80421;SDS011;69763;50.182;9.144;2023-08-20T12:31:32;8.63;;;4.95;;
80421;SDS011;69763;50.182;9.144;2023-08-20T12:33:57;5.97;;;4.68;;
80421;SDS011;69763;50.182;9.144;2023-08-20T12:36:23;9.55;;;5.13;;
80421;SDS011;69763;50.182;9.144;2023-08-20T12:38:50;6.13;;;4.28;;
80421;SDS011;69763;50.182;9.144;2023-08-20T12:41:15;5.05;;;4.55;;
80421;SDS011;69763;50.182;9.144;2023-08-20T12:43:41;9.07;;;4.63;;
80421;SDS011;69763;50.182;9.144;2023-08-20T12:46:08;7.85;;;4.32;;
80421;SDS011;69763;50.182;9.144;2023-08-20T12:48:33;7.65;;;5.20;;
80421;SDS011;69763;50.182;9.144;2023-08-20T12:50:59;8.00;;;4.80;;
80421;SDS011;69763;50.182;9.144;2023-08-20T12:53:24;5.40;;;4.25;;
80421;SDS011;69763;50.182;9.144;2023-08-20T12:55:50;8.80;;;5.05;;
80421;SDS011;69763;50.182;9.144;2023-08-20T12:58:15;7.13;;;4.75;;
80421;SDS011;69763;50.182;9.144;2023-08-20T13:00:41;7.00;;;5.85;;
80421;SDS011;69763;50.182;9.144;2023-08-20T13:03:11;6.90;;;4.93;;
80421;SDS011;69763;50.182;9.144;2023-08-20T13:05:37;7.32;;;4.97;;
80421;SDS011;69763;50.182;9.144;2023-08-20T13:08:03;7.05;;;5.15;;
80421;SDS011;69763;50.182;9.144;2023-08-20T13:10:29;6.22;;;4.20;;
80421;SDS011;69763;50.182;9.144;2023-08-20T13:12:56;8.85;;;5.35;;
80421;SDS011;69763;50.182;9.144;2023-08-20T13:15:25;6.43;;;4.80;;
80421;SDS011;69763;50.182;9.144;2023-08-20T13:17:51;5.97;;;4.55;;
80421;SDS011;69763;50.182;9.144;2023-08-20T13:20:18;8.82;;;5.45;;
80421;SDS011;69763;50.182;9.144;2023-08-20T13:22:45;10.00;;;5.80;;
80421;SDS011;69763;50.182;9.144;2023-08-20T13:25:10;9.23;;;5.28;;
80421;SDS011;69763;50.182;9.144;2023-08-20T13:27:36;6.90;;;4.97;;
80421;SDS011;69763;50.182;9.144;2023-08-20T13:30:02;7.13;;;5.22;;
80421;SDS011;69763;50.182;9.144;2023-08-20T13:32:27;5.80;;;4.60;;
80421;SDS011;69763;50.182;9.144;2023-08-20T13:34:53;9.15;;;5.57;;
80421;SDS011;69763;50.182;9.144;2023-08-20T13:37:20;5.13;;;4.57;;
80421;SDS011;69763;50.182;9.144;2023-08-20T13:39:45;7.38;;;5.25;;
80421;SDS011;69763;50.182;9.144;2023-08-20T13:42:11;6.75;;;5.00;;
80421;SDS011;69763;50.182;9.144;2023-08-20T13:44:36;7.30;;;5.15;;
80421;SDS011;69763;50.182;9.144;2023-08-20T13:47:01;8.73;;;5.40;;
80421;SDS011;69763;50.182;9.144;2023-08-20T13:49:27;6.07;;;4.28;;
80421;SDS011;69763;50.182;9.144;2023-08-20T13:51:52;6.70;;;4.25;;
80421;SDS011;69763;50.182;9.144;2023-08-20T13:54:19;5.70;;;4.80;;
80421;SDS011;69763;50.182;9.144;2023-08-20T13:56:45;8.32;;;4.68;;
80421;SDS011;69763;50.182;9.144;2023-08-20T13:59:10;5.25;;;4.18;;
80421;SDS011;69763;50.182;9.144;2023-08-20T14:01:35;7.55;;;4.35;;
80421;SDS011;69763;50.182;9.144;2023-08-20T14:04:01;6.05;;;4.30;;
80421;SDS011;69763;50.182;9.144;2023-08-20T14:06:26;6.38;;;4.60;;
80421;SDS011;69763;50.182;9.144;2023-08-20T14:08:52;8.50;;;3.80;;
80421;SDS011;69763;50.182;9.144;2023-08-20T14:11:19;5.97;;;3.80;;
80421;SDS011;69763;50.182;9.144;2023-08-20T14:13:44;6.70;;;4.03;;
80421;SDS011;69763;50.182;9.144;2023-08-20T14:16:09;8.38;;;3.92;;
80421;SDS011;69763;50.182;9.144;2023-08-20T14:18:35;5.85;;;3.70;;
80421;SDS011;69763;50.182;9.144;2023-08-20T14:21:00;9.82;;;4.63;;
80421;SDS011;69763;50.182;9.144;2023-08-20T14:23:26;7.50;;;4.57;;
80421;SDS011;69763;50.182;9.144;2023-08-20T14:25:53;8.60;;;4.55;;
80421;SDS011;69763;50.182;9.144;2023-08-20T14:28:20;6.00;;;4.38;;
80421;SDS011;69763;50.182;9.144;2023-08-20T14:30:46;9.30;;;4.75;;
80421;SDS011;69763;50.182;9.144;2023-08-20T14:33:13;6.78;;;4.30;;
80421;SDS011;69763;50.182;9.144;2023-08-20T14:35:39;6.88;;;4.45;;
80421;SDS011;69763;50.182;9.144;2023-08-20T14:38:04;6.93;;;4.35;;
80421;SDS011;69763;50.182;9.144;2023-08-20T14:40:30;7.95;;;4.45;;
80421;SDS011;69763;50.182;9.144;2023-08-20T14:42:55;7.28;;;5.13;;
80421;SDS011;69763;50.182;9.144;2023-08-20T14:45:22;6.13;;;4.00;;
80421;SDS011;69763;50.182;9.144;2023-08-20T14:47:48;7.70;;;3.85;;
80421;SDS011;69763;50.182;9.144;2023-08-20T14:50:13;8.02;;;4.35;;
80421;SDS011;69763;50.182;9.144;2023-08-20T14:52:38;6.45;;;3.65;;
80421;SDS011;69763;50.182;9.144;2023-08-20T14:55:04;5.57;;;3.88;;
80421;SDS011;69763;50.182;9.144;2023-08-20T14:57:31;5.28;;;3.90;;
80421;SDS011;69763;50.182;9.144;2023-08-20T14:59:56;5.55;;;3.78;;
80421;SDS011;69763;50.182;9.144;2023-08-20T15:02:23;6.00;;;3.85;;